Time;durP1;ratioP1;P1;durP2;ratioP2;P2;SDS_P1;SDS_P2;PMS_P1;PMS_P2;Temp;Humidity;BMP_temperature;BMP_pressure;BME280_temperature;BME280_humidity;BME280_pressure;Samples;Min_cycle;Max_cycle;Signal;HPM_P1;HPM_P2
2022/10/21 00:00:54;;;;;;;45.88;23.63;;;;;;;;;;5014105;28;20037;-77
2022/10/21 00:03:22;;;;;;;35.35;23.83;;;;;;;;;;5013889;28;20043;-77
2022/10/21 00:05:48;;;;;;;42.75;25.58;;;;;;;;;;5014269;28;20028;-77
2022/10/21 00:08:16;;;;;;;38.60;26.20;;;;;;;;;;4998141;28;20040;-76
2022/10/21 00:10:42;;;;;;;35.10;25.17;;;;;;;;;;5014928;28;20115;-77
2022/10/21 00:13:08;;;;;;;43.15;24.70;;;;;;;;;;5015589;28;20079;-77
2022/10/21 00:15:34;;;;;;;37.50;25.70;;;;;;;;;;5016463;28;20037;-77
2022/10/21 00:18:01;;;;;;;33.53;22.70;;;;;;;;;;5014881;28;20501;-78
2022/10/21 00:20:29;;;;;;;38.67;23.98;;;;;;;;;;5013950;28;20037;-77
2022/10/21 00:22:57;;;;;;;36.95;22.98;;;;;;;;;;5013670;28;20461;-78
2022/10/21 00:25:22;;;;;;;37.45;23.42;;;;;;;;;;5022881;28;20796;-79
2022/10/21 00:27:48;;;;;;;30.83;21.80;;;;;;;;;;5014455;28;20444;-77
2022/10/21 00:30:13;;;;;;;34.05;21.50;;;;;;;;;;5007073;28;21883;-78
2022/10/21 00:32:39;;;;;;;29.83;20.23;;;;;;;;;;5017272;28;20047;-78
2022/10/21 00:35:05;;;;;;;31.65;20.70;;;;;;;;;;5013807;28;20040;-78
2022/10/21 00:37:31;;;;;;;39.10;22.00;;;;;;;;;;5015114;28;20090;-78
2022/10/21 00:40:00;;;;;;;34.60;22.45;;;;;;;;;;5013579;28;20033;-76
2022/10/21 00:42:31;;;;;;;35.13;21.38;;;;;;;;;;5016630;28;20546;-78
2022/10/21 00:45:09;;;;;;;34.47;19.83;;;;;;;;;;4998836;28;20047;-78
2022/10/21 00:47:41;;;;;;;32.90;19.75;;;;;;;;;;5024091;28;20036;-78
2022/10/21 00:50:15;;;;;;;35.13;20.38;;;;;;;;;;5013070;28;20039;-78
2022/10/21 00:52:40;;;;;;;33.97;20.67;;;;;;;;;;5014417;28;20565;-77
2022/10/21 00:55:06;;;;;;;34.63;20.67;;;;;;;;;;5026774;28;20417;-77
2022/10/21 00:57:32;;;;;;;37.20;20.95;;;;;;;;;;5012213;28;20081;-77
2022/10/21 00:59:59;;;;;;;34.47;21.30;;;;;;;;;;5014995;28;20626;-77
2022/10/21 01:02:28;;;;;;;39.72;22.65;;;;;;;;;;5011489;28;20659;-77
2022/10/21 01:04:56;;;;;;;39.95;22.02;;;;;;;;;;5015773;28;20207;-77
2022/10/21 01:07:21;;;;;;;33.78;22.25;;;;;;;;;;5014424;28;21065;-76
2022/10/21 01:09:47;;;;;;;33.40;21.05;;;;;;;;;;5016183;28;20041;-77
2022/10/21 01:12:29;;;;;;;35.72;21.05;;;;;;;;;;5015119;28;20029;-77
2022/10/21 01:14:56;;;;;;;35.42;20.77;;;;;;;;;;5015712;28;20431;-77
2022/10/21 01:17:57;;;;;;;40.03;25.08;;;;;;;;;;5030432;28;21560;-77
2022/10/21 01:20:43;;;;;;;47.70;29.02;;;;;;;;;;4966772;28;20038;-78
2022/10/21 01:23:14;;;;;;;66.40;42.25;;;;;;;;;;4991329;28;20064;-78
2022/10/21 01:25:45;;;;;;;65.50;40.50;;;;;;;;;;4994548;28;20045;-78
2022/10/21 01:28:27;;;;;;;36.90;22.15;;;;;;;;;;4994813;28;20094;-78
2022/10/21 01:30:54;;;;;;;34.45;20.45;;;;;;;;;;4994204;28;20044;-78
2022/10/21 01:33:34;;;;;;;38.30;22.15;;;;;;;;;;4994626;28;20039;-78
2022/10/21 01:36:07;;;;;;;41.53;22.33;;;;;;;;;;4995684;28;20260;-78
2022/10/21 01:38:32;;;;;;;39.53;24.38;;;;;;;;;;4994122;28;20454;-77
2022/10/21 01:41:05;;;;;;;39.75;23.48;;;;;;;;;;4993805;28;20415;-77
2022/10/21 01:43:45;;;;;;;41.75;26.60;;;;;;;;;;4992825;28;21931;-77
2022/10/21 01:46:28;;;;;;;43.42;27.88;;;;;;;;;;4994144;28;20300;-77
2022/10/21 01:48:56;;;;;;;42.35;25.60;;;;;;;;;;5010914;28;20051;-78
2022/10/21 01:51:23;;;;;;;49.67;27.67;;;;;;;;;;5011636;28;20040;-77
2022/10/21 01:53:53;;;;;;;48.58;28.02;;;;;;;;;;5011999;28;20032;-77
2022/10/21 01:56:19;;;;;;;47.25;28.40;;;;;;;;;;5013855;28;20048;-76
2022/10/21 01:58:46;;;;;;;47.70;30.38;;;;;;;;;;5008309;28;20033;-78
2022/10/21 02:01:13;;;;;;;45.67;27.63;;;;;;;;;;5010546;28;20035;-77
2022/10/21 02:03:46;;;;;;;43.17;29.48;;;;;;;;;;5012836;28;20048;-76
2022/10/21 02:06:15;;;;;;;50.92;29.40;;;;;;;;;;5014219;28;20036;-77
2022/10/21 02:08:41;;;;;;;46.50;25.33;;;;;;;;;;4996650;28;20294;-77
2022/10/21 02:11:08;;;;;;;43.33;25.13;;;;;;;;;;5003559;28;20089;-77
2022/10/21 02:13:40;;;;;;;43.80;25.38;;;;;;;;;;5004707;28;20615;-77
2022/10/21 02:16:08;;;;;;;39.97;24.38;;;;;;;;;;5024533;28;20402;-77
2022/10/21 02:18:34;;;;;;;45.92;26.98;;;;;;;;;;5014834;28;20117;-78
2022/10/21 02:21:04;;;;;;;42.75;28.30;;;;;;;;;;5012067;28;20473;-77
2022/10/21 02:23:55;;;;;;;46.72;28.08;;;;;;;;;;5013783;28;20126;-78
2022/10/21 02:26:21;;;;;;;42.03;28.80;;;;;;;;;;5004050;28;20530;-77
2022/10/21 02:28:47;;;;;;;44.83;27.52;;;;;;;;;;5014909;28;20445;-77
2022/10/21 02:31:28;;;;;;;48.75;26.83;;;;;;;;;;5027029;28;20536;-77
2022/10/21 02:33:59;;;;;;;41.40;26.23;;;;;;;;;;5014429;28;20068;-78
2022/10/21 02:36:47;;;;;;;47.35;26.67;;;;;;;;;;5013033;28;20040;-77
2022/10/21 02:39:17;;;;;;;49.70;27.58;;;;;;;;;;5015263;28;20158;-77
2022/10/21 02:41:43;;;;;;;45.35;28.92;;;;;;;;;;5013913;28;20444;-77
2022/10/21 02:44:09;;;;;;;46.40;29.13;;;;;;;;;;5015021;28;20090;-78
2022/10/21 02:46:36;;;;;;;46.28;26.83;;;;;;;;;;5029619;28;20037;-77
2022/10/21 02:49:02;;;;;;;45.10;27.80;;;;;;;;;;5014921;28;20059;-78
2022/10/21 02:51:29;;;;;;;46.63;28.00;;;;;;;;;;5012735;28;20305;-77
2022/10/21 02:53:55;;;;;;;45.20;28.42;;;;;;;;;;5011749;28;20632;-78
2022/10/21 02:56:20;;;;;;;44.42;27.40;;;;;;;;;;5013100;28;20033;-78
2022/10/21 02:58:49;;;;;;;51.08;29.02;;;;;;;;;;5005862;28;20293;-76
2022/10/21 03:01:15;;;;;;;56.65;30.60;;;;;;;;;;5014319;28;20564;-77
2022/10/21 03:03:42;;;;;;;60.60;31.25;;;;;;;;;;5023813;28;20377;-77
2022/10/21 03:06:08;;;;;;;53.70;30.52;;;;;;;;;;5013498;28;20448;-78
2022/10/21 03:08:33;;;;;;;55.25;28.52;;;;;;;;;;5014772;28;20185;-78
2022/10/21 03:10:58;;;;;;;44.05;25.27;;;;;;;;;;5010942;28;20036;-78
2022/10/21 03:13:27;;;;;;;43.72;26.17;;;;;;;;;;5014037;28;20055;-79
2022/10/21 03:15:53;;;;;;;51.08;28.02;;;;;;;;;;5012506;28;20101;-77
2022/10/21 03:18:21;;;;;;;54.90;29.58;;;;;;;;;;5022301;28;20506;-78
2022/10/21 03:20:50;;;;;;;53.67;30.80;;;;;;;;;;5013807;28;20186;-78
2022/10/21 03:23:16;;;;;;;52.00;31.25;;;;;;;;;;5011123;28;20041;-78
2022/10/21 03:25:42;;;;;;;48.90;30.45;;;;;;;;;;5013573;28;20158;-78
2022/10/21 03:28:08;;;;;;;50.53;31.52;;;;;;;;;;5013671;28;20026;-77
2022/10/21 03:30:33;;;;;;;57.67;33.22;;;;;;;;;;5014110;28;20561;-78
2022/10/21 03:33:00;;;;;;;57.28;33.25;;;;;;;;;;5013513;28;20025;-78
2022/10/21 03:35:25;;;;;;;55.10;33.85;;;;;;;;;;5011831;28;20284;-77
2022/10/21 03:37:51;;;;;;;54.38;31.60;;;;;;;;;;5014456;28;20130;-77
2022/10/21 03:40:16;;;;;;;47.92;29.30;;;;;;;;;;5012186;28;20383;-77
2022/10/21 03:42:42;;;;;;;47.72;28.98;;;;;;;;;;5016317;28;20041;-77
2022/10/21 03:45:07;;;;;;;42.72;27.90;;;;;;;;;;5009577;28;20504;-77
2022/10/21 03:47:33;;;;;;;45.42;28.80;;;;;;;;;;5024565;28;20375;-77
2022/10/21 03:49:59;;;;;;;43.53;27.15;;;;;;;;;;5015150;28;20316;-77
2022/10/21 03:52:24;;;;;;;43.58;28.23;;;;;;;;;;5015989;28;20348;-76
2022/10/21 03:54:49;;;;;;;43.25;28.20;;;;;;;;;;5017424;28;20125;-77
2022/10/21 03:57:17;;;;;;;49.25;28.95;;;;;;;;;;5010301;28;20641;-77
2022/10/21 03:59:45;;;;;;;41.90;27.02;;;;;;;;;;5013966;28;20344;-77
2022/10/21 04:02:11;;;;;;;41.72;26.63;;;;;;;;;;5018299;28;20136;-77
2022/10/21 04:04:36;;;;;;;42.40;25.65;;;;;;;;;;5016135;28;20052;-78
2022/10/21 04:07:01;;;;;;;41.08;25.08;;;;;;;;;;5015552;28;20316;-77
2022/10/21 04:09:27;;;;;;;34.60;21.10;;;;;;;;;;5014871;28;21430;-78
2022/10/21 04:11:53;;;;;;;41.45;23.23;;;;;;;;;;5013705;28;20752;-76
2022/10/21 04:14:18;;;;;;;39.63;22.10;;;;;;;;;;5016654;28;20539;-77
2022/10/21 04:16:44;;;;;;;41.78;21.83;;;;;;;;;;5014568;28;20414;-76
2022/10/21 04:19:14;;;;;;;38.03;21.13;;;;;;;;;;5016034;28;21894;-77
2022/10/21 04:21:39;;;;;;;33.42;20.52;;;;;;;;;;5015068;28;20061;-77
2022/10/21 04:24:04;;;;;;;37.47;21.10;;;;;;;;;;5015900;28;20524;-77
2022/10/21 04:26:30;;;;;;;30.25;19.65;;;;;;;;;;5015479;28;20367;-77
2022/10/21 04:28:56;;;;;;;37.65;20.40;;;;;;;;;;5015894;28;20063;-77
2022/10/21 04:31:21;;;;;;;35.70;21.02;;;;;;;;;;5014877;28;20083;-77
2022/10/21 04:33:46;;;;;;;38.85;22.35;;;;;;;;;;5006451;28;20059;-77
2022/10/21 04:36:12;;;;;;;35.00;22.38;;;;;;;;;;5013577;28;20036;-76
2022/10/21 04:38:37;;;;;;;31.83;21.60;;;;;;;;;;5016028;28;20047;-77
2022/10/21 04:41:06;;;;;;;41.15;23.38;;;;;;;;;;5014976;28;20040;-77
2022/10/21 04:43:32;;;;;;;34.47;19.70;;;;;;;;;;5015608;28;20062;-77
2022/10/21 04:45:59;;;;;;;38.42;21.20;;;;;;;;;;5014081;28;20508;-76
2022/10/21 04:48:25;;;;;;;30.48;19.17;;;;;;;;;;5016001;28;20883;-77
2022/10/21 04:50:51;;;;;;;38.95;21.83;;;;;;;;;;5016390;28;20102;-76
2022/10/21 04:53:17;;;;;;;34.75;20.83;;;;;;;;;;5014880;28;20021;-77
2022/10/21 04:55:42;;;;;;;31.63;20.33;;;;;;;;;;5005260;28;20029;-77
2022/10/21 04:58:08;;;;;;;43.00;22.35;;;;;;;;;;4995835;28;20047;-77
2022/10/21 05:00:33;;;;;;;42.60;25.38;;;;;;;;;;5003895;28;20036;-74
2022/10/21 05:03:02;;;;;;;45.67;27.90;;;;;;;;;;5013455;28;20464;-77
2022/10/21 05:05:29;;;;;;;36.22;23.73;;;;;;;;;;5015798;28;20361;-74
2022/10/21 05:07:55;;;;;;;40.63;22.83;;;;;;;;;;5014586;28;20025;-77
2022/10/21 05:10:22;;;;;;;33.20;20.50;;;;;;;;;;5013987;28;20104;-76
2022/10/21 05:12:48;;;;;;;36.25;21.10;;;;;;;;;;5014081;28;20086;-77
2022/10/21 05:15:13;;;;;;;40.30;23.20;;;;;;;;;;5015625;28;20033;-77
2022/10/21 05:17:38;;;;;;;42.58;23.75;;;;;;;;;;5013676;28;20036;-77
2022/10/21 05:20:05;;;;;;;43.53;24.67;;;;;;;;;;5006694;28;20136;-79
2022/10/21 05:22:31;;;;;;;37.17;23.00;;;;;;;;;;5014221;28;20040;-79
2022/10/21 05:24:56;;;;;;;38.75;22.30;;;;;;;;;;5017786;28;20051;-80
2022/10/21 05:27:21;;;;;;;38.38;21.77;;;;;;;;;;5013523;28;20161;-75
2022/10/21 05:29:47;;;;;;;34.95;21.38;;;;;;;;;;4995645;28;20827;-76
2022/10/21 05:32:17;;;;;;;37.92;22.35;;;;;;;;;;5018763;28;20532;-79
2022/10/21 05:34:42;;;;;;;37.63;21.98;;;;;;;;;;5019001;28;20557;-78
2022/10/21 05:37:08;;;;;;;38.08;22.77;;;;;;;;;;5014297;28;20425;-77
2022/10/21 05:39:33;;;;;;;41.65;22.40;;;;;;;;;;5017491;28;20509;-75
2022/10/21 05:42:01;;;;;;;31.40;21.13;;;;;;;;;;5013743;28;20035;-77
2022/10/21 05:44:26;;;;;;;37.47;22.67;;;;;;;;;;5010481;28;20488;-77
2022/10/21 05:46:54;;;;;;;41.38;23.63;;;;;;;;;;5001563;28;20447;-79
2022/10/21 05:49:19;;;;;;;39.55;22.77;;;;;;;;;;5014977;28;20036;-77
2022/10/21 05:51:45;;;;;;;46.28;25.08;;;;;;;;;;5014874;28;20584;-78
2022/10/21 05:54:10;;;;;;;38.58;22.67;;;;;;;;;;5013868;28;20149;-79
2022/10/21 05:56:35;;;;;;;34.60;22.00;;;;;;;;;;5013608;28;20037;-78
2022/10/21 05:59:02;;;;;;;41.97;24.08;;;;;;;;;;5013573;28;20029;-78
2022/10/21 06:01:28;;;;;;;46.40;24.58;;;;;;;;;;5009889;28;20043;-76
2022/10/21 06:03:53;;;;;;;38.65;22.92;;;;;;;;;;5028124;28;20541;-78
2022/10/21 06:06:18;;;;;;;40.60;22.65;;;;;;;;;;5013486;28;20035;-77
2022/10/21 06:08:44;;;;;;;35.15;21.95;;;;;;;;;;5016077;28;20072;-76
2022/10/21 06:11:11;;;;;;;36.75;21.80;;;;;;;;;;5012437;28;20502;-77
2022/10/21 06:13:36;;;;;;;40.28;21.55;;;;;;;;;;5016289;28;20044;-78
2022/10/21 06:16:02;;;;;;;35.85;21.38;;;;;;;;;;5014568;28;20568;-78
2022/10/21 06:18:28;;;;;;;36.42;20.45;;;;;;;;;;5009873;28;20115;-77
2022/10/21 06:20:53;;;;;;;35.28;21.38;;;;;;;;;;5014485;28;20546;-78
2022/10/21 06:23:19;;;;;;;36.63;21.20;;;;;;;;;;5016040;28;20047;-77
2022/10/21 06:26:14;;;;;;;35.58;20.85;;;;;;;;;;5014682;28;20041;-79
2022/10/21 06:28:40;;;;;;;39.17;20.27;;;;;;;;;;5009729;28;20533;-79
2022/10/21 06:31:07;;;;;;;33.22;20.80;;;;;;;;;;5016458;28;20029;-78
2022/10/21 06:33:35;;;;;;;42.88;20.35;;;;;;;;;;5015647;28;20547;-77
2022/10/21 06:36:00;;;;;;;39.33;20.70;;;;;;;;;;4996515;28;20033;-78
2022/10/21 06:38:26;;;;;;;36.40;20.00;;;;;;;;;;5013109;28;20032;-77
2022/10/21 06:40:59;;;;;;;30.45;19.00;;;;;;;;;;5011637;28;20525;-78
2022/10/21 06:43:24;;;;;;;;;;;;;;;;;;5017024;28;20217;-77
2022/10/21 06:45:50;;;;;;;36.13;19.60;;;;;;;;;;5014622;28;20015;-79
2022/10/21 06:48:15;;;;;;;35.05;20.63;;;;;;;;;;5024941;28;20143;-77
2022/10/21 06:50:40;;;;;;;39.40;19.20;;;;;;;;;;5011653;28;20040;-79
2022/10/21 06:53:06;;;;;;;37.10;19.98;;;;;;;;;;5014313;28;20081;-77
2022/10/21 06:55:32;;;;;;;35.90;20.42;;;;;;;;;;5013375;28;20693;-78
2022/10/21 06:57:58;;;;;;;35.03;19.48;;;;;;;;;;5012046;28;20041;-78
2022/10/21 07:00:24;;;;;;;37.40;20.33;;;;;;;;;;5014547;28;20056;-78
2022/10/21 07:02:49;;;;;;;39.13;20.45;;;;;;;;;;5014257;28;20377;-77
2022/10/21 07:05:15;;;;;;;39.30;19.70;;;;;;;;;;5016015;28;21142;-78
2022/10/21 07:07:41;;;;;;;34.58;19.30;;;;;;;;;;5014810;28;20059;-78
2022/10/21 07:10:06;;;;;;;33.50;16.98;;;;;;;;;;5018072;28;20041;-79
2022/10/21 07:12:32;;;;;;;34.00;17.90;;;;;;;;;;5016238;28;20063;-79
2022/10/21 07:14:58;;;;;;;39.85;18.63;;;;;;;;;;5013989;28;20025;-79
2022/10/21 07:17:24;;;;;;;36.47;19.08;;;;;;;;;;5018661;28;20037;-77
2022/10/21 07:19:49;;;;;;;36.20;18.20;;;;;;;;;;5034902;28;20608;-78
2022/10/21 07:22:14;;;;;;;29.88;17.73;;;;;;;;;;5022629;28;20338;-78
2022/10/21 07:24:40;;;;;;;34.47;17.77;;;;;;;;;;5015643;28;20702;-78
2022/10/21 07:27:06;;;;;;;43.15;19.42;;;;;;;;;;5020185;28;20040;-77
2022/10/21 07:29:32;;;;;;;34.47;17.73;;;;;;;;;;5007015;28;20501;-77
2022/10/21 07:31:57;;;;;;;37.50;19.02;;;;;;;;;;5017090;28;20433;-78
2022/10/21 07:34:24;;;;;;;36.38;17.77;;;;;;;;;;5018207;28;20036;-77
2022/10/21 07:36:51;;;;;;;36.15;16.95;;;;;;;;;;5018727;28;20048;-77
2022/10/21 07:39:18;;;;;;;27.23;16.15;;;;;;;;;;5018577;28;20624;-77
2022/10/21 07:41:48;;;;;;;33.20;15.35;;;;;;;;;;5017795;28;21422;-77
2022/10/21 07:44:14;;;;;;;32.60;16.10;;;;;;;;;;5021529;28;20133;-77
2022/10/21 07:46:41;;;;;;;34.80;17.50;;;;;;;;;;5016323;28;20093;-77
2022/10/21 07:49:07;;;;;;;34.85;17.67;;;;;;;;;;5023171;28;20132;-79
2022/10/21 07:51:32;;;;;;;34.08;17.48;;;;;;;;;;5025909;28;20395;-78
2022/10/21 07:54:00;;;;;;;37.35;18.40;;;;;;;;;;5026914;28;20198;-77
2022/10/21 07:56:30;;;;;;;30.35;17.02;;;;;;;;;;5021542;28;20859;-77
2022/10/21 07:58:56;;;;;;;33.67;18.48;;;;;;;;;;5021917;28;20029;-77
2022/10/21 08:01:23;;;;;;;32.63;15.23;;;;;;;;;;5028526;28;20040;-78
2022/10/21 08:03:51;;;;;;;28.13;14.25;;;;;;;;;;5022860;28;20733;-78
2022/10/21 08:06:16;;;;;;;32.10;15.20;;;;;;;;;;5026600;28;20056;-78
2022/10/21 08:08:42;;;;;;;30.58;15.35;;;;;;;;;;5022101;28;20059;-78
2022/10/21 08:11:08;;;;;;;24.95;14.63;;;;;;;;;;5021741;28;20060;-77
2022/10/21 08:13:38;;;;;;;32.35;15.38;;;;;;;;;;5026986;28;20039;-78
2022/10/21 08:16:04;;;;;;;31.90;15.23;;;;;;;;;;5017955;28;20109;-78
2022/10/21 08:18:32;;;;;;;28.52;14.13;;;;;;;;;;5026835;28;20664;-77
2022/10/21 08:21:00;;;;;;;25.02;13.60;;;;;;;;;;5020437;28;20033;-78
2022/10/21 08:23:25;;;;;;;22.27;13.00;;;;;;;;;;5023957;28;20129;-78
2022/10/21 08:25:52;;;;;;;25.52;13.45;;;;;;;;;;5022053;28;20052;-77
2022/10/21 08:28:19;;;;;;;34.42;16.85;;;;;;;;;;5023859;28;20033;-78
2022/10/21 08:30:45;;;;;;;32.65;17.63;;;;;;;;;;5026485;28;20592;-77
2022/10/21 08:33:11;;;;;;;38.78;16.15;;;;;;;;;;5027795;28;20064;-77
2022/10/21 08:35:37;;;;;;;33.40;14.45;;;;;;;;;;5030016;28;20094;-78
2022/10/21 08:38:03;;;;;;;35.65;15.60;;;;;;;;;;5024392;28;20056;-78
2022/10/21 08:40:30;;;;;;;30.23;15.70;;;;;;;;;;5022253;28;20992;-77
2022/10/21 08:43:05;;;;;;;26.55;13.48;;;;;;;;;;5020769;28;20040;-78
2022/10/21 08:45:37;;;;;;;31.13;13.25;;;;;;;;;;5024706;28;20152;-76
2022/10/21 08:48:05;;;;;;;22.15;11.65;;;;;;;;;;5018575;28;20052;-77
2022/10/21 08:50:37;;;;;;;19.45;10.63;;;;;;;;;;5025678;28;20139;-79
2022/10/21 08:53:11;;;;;;;14.93;9.82;;;;;;;;;;5028860;28;20047;-78
2022/10/21 08:55:42;;;;;;;18.83;9.50;;;;;;;;;;5028120;28;20690;-78
2022/10/21 08:58:19;;;;;;;19.10;10.00;;;;;;;;;;5015190;28;20090;-78
2022/10/21 09:00:46;;;;;;;19.27;9.82;;;;;;;;;;5027644;28;20094;-78
2022/10/21 09:03:14;;;;;;;20.83;10.10;;;;;;;;;;5029063;28;20029;-78
2022/10/21 09:05:52;;;;;;;21.67;10.05;;;;;;;;;;5040092;28;20052;-77
2022/10/21 09:08:29;;;;;;;18.98;9.50;;;;;;;;;;5023418;28;20033;-78
2022/10/21 09:11:14;;;;;;;23.42;10.20;;;;;;;;;;5024034;28;20816;-79
2022/10/21 09:13:48;;;;;;;20.20;10.48;;;;;;;;;;5031105;28;20039;-79
2022/10/21 09:16:27;;;;;;;20.70;10.38;;;;;;;;;;5028779;28;22386;-80
2022/10/21 09:19:14;;;;;;;22.33;10.35;;;;;;;;;;5024199;28;20120;-78
2022/10/21 09:21:45;;;;;;;22.60;10.30;;;;;;;;;;5034237;28;20068;-78
2022/10/21 09:24:43;;;;;;;24.05;10.38;;;;;;;;;;5026212;28;20923;-79
2022/10/21 09:27:10;;;;;;;19.73;9.60;;;;;;;;;;5030710;28;20594;-78
2022/10/21 09:29:39;;;;;;;21.48;10.20;;;;;;;;;;5029036;28;20021;-78
2022/10/21 09:32:16;;;;;;;17.70;9.90;;;;;;;;;;5027298;28;20037;-78
2022/10/21 09:34:46;;;;;;;16.00;9.13;;;;;;;;;;5028528;28;20657;-78
2022/10/21 09:37:21;;;;;;;17.00;9.77;;;;;;;;;;5011046;28;20067;-78
2022/10/21 09:40:03;;;;;;;17.30;8.23;;;;;;;;;;5027544;28;20036;-77
2022/10/21 09:42:29;;;;;;;16.90;8.32;;;;;;;;;;5030724;28;20081;-76
2022/10/21 09:44:54;;;;;;;17.33;8.45;;;;;;;;;;5032815;28;20968;-78
2022/10/21 09:47:21;;;;;;;16.13;8.07;;;;;;;;;;5023911;28;20033;-78
2022/10/21 09:49:49;;;;;;;16.10;8.88;;;;;;;;;;5029512;28;20033;-77
2022/10/21 09:52:17;;;;;;;18.70;9.38;;;;;;;;;;5017375;28;20041;-78
2022/10/21 09:54:47;;;;;;;24.92;9.32;;;;;;;;;;5027397;28;20134;-78
2022/10/21 09:57:15;;;;;;;22.38;11.00;;;;;;;;;;5026761;28;20033;-78
2022/10/21 09:59:54;;;;;;;23.75;12.07;;;;;;;;;;5027190;28;20036;-77
2022/10/21 10:02:35;;;;;;;27.63;11.25;;;;;;;;;;5022761;28;20871;-78
2022/10/21 10:05:04;;;;;;;16.80;8.90;;;;;;;;;;5023898;28;20812;-77
2022/10/21 10:07:34;;;;;;;11.85;7.13;;;;;;;;;;5021583;28;20661;-76
2022/10/21 10:10:03;;;;;;;20.27;8.85;;;;;;;;;;5026940;28;20067;-78
2022/10/21 10:12:29;;;;;;;20.48;9.57;;;;;;;;;;5036777;28;20119;-79
2022/10/21 10:14:54;;;;;;;20.55;8.63;;;;;;;;;;5039391;28;20477;-78
2022/10/21 10:17:25;;;;;;;20.05;9.13;;;;;;;;;;5033374;28;20060;-79
2022/10/21 10:20:08;;;;;;;16.75;7.38;;;;;;;;;;5033472;28;20115;-77
2022/10/21 10:22:34;;;;;;;15.55;7.43;;;;;;;;;;5028662;28;20035;-77
2022/10/21 10:25:27;;;;;;;13.00;7.60;;;;;;;;;;5047867;28;20045;-78
2022/10/21 10:27:52;;;;;;;21.27;7.60;;;;;;;;;;5049324;28;20048;-79
2022/10/21 10:30:22;;;;;;;13.75;7.03;;;;;;;;;;5042661;28;20105;-78
2022/10/21 10:32:49;;;;;;;19.42;8.02;;;;;;;;;;5043457;28;20033;-78
2022/10/21 10:35:24;;;;;;;18.20;8.93;;;;;;;;;;5039689;28;20071;-77
2022/10/21 10:37:50;;;;;;;22.27;9.57;;;;;;;;;;5035851;28;21000;-80
2022/10/21 10:40:18;;;;;;;36.83;14.02;;;;;;;;;;5034506;28;20033;-78
2022/10/21 10:42:45;;;;;;;34.95;13.35;;;;;;;;;;5024765;28;20037;-79
2022/10/21 10:45:10;;;;;;;28.20;13.90;;;;;;;;;;5049552;28;20064;-78
2022/10/21 10:47:50;;;;;;;31.60;13.02;;;;;;;;;;5041786;28;20032;-78
2022/10/21 10:50:35;;;;;;;29.20;11.10;;;;;;;;;;5059336;28;20036;-78
2022/10/21 10:53:08;;;;;;;22.33;10.80;;;;;;;;;;5061148;28;20036;-78
2022/10/21 10:55:40;;;;;;;21.00;11.65;;;;;;;;;;5049834;28;20492;-79
2022/10/21 10:58:07;;;;;;;18.73;10.13;;;;;;;;;;5058304;28;20083;-78
2022/10/21 11:00:39;;;;;;;26.30;11.32;;;;;;;;;;5048741;28;20021;-78
2022/10/21 11:03:06;;;;;;;23.63;11.23;;;;;;;;;;5058862;28;20451;-79
2022/10/21 11:05:37;;;;;;;18.00;8.50;;;;;;;;;;5062058;28;20488;-78
2022/10/21 11:08:12;;;;;;;14.48;8.43;;;;;;;;;;5040273;28;20031;-79
2022/10/21 11:10:43;;;;;;;17.85;8.63;;;;;;;;;;5036376;28;20033;-77
2022/10/21 11:13:10;;;;;;;12.55;7.63;;;;;;;;;;5011841;28;20083;-78
2022/10/21 11:15:36;;;;;;;11.52;7.38;;;;;;;;;;5020012;28;20859;-77
2022/10/21 11:18:08;;;;;;;15.75;7.50;;;;;;;;;;5025241;28;20119;-78
2022/10/21 11:20:39;;;;;;;16.77;7.50;;;;;;;;;;5031654;28;20033;-77
2022/10/21 11:23:23;;;;;;;17.93;7.67;;;;;;;;;;5036393;28;20028;-78
2022/10/21 11:25:54;;;;;;;15.55;8.00;;;;;;;;;;5011963;28;20051;-77
2022/10/21 11:28:31;;;;;;;16.15;7.95;;;;;;;;;;5022870;28;20033;-77
2022/10/21 11:31:02;;;;;;;14.75;7.13;;;;;;;;;;5020320;28;20917;-77
2022/10/21 11:33:37;;;;;;;14.93;7.78;;;;;;;;;;5018889;28;20833;-78
2022/10/21 11:36:02;;;;;;;14.32;6.82;;;;;;;;;;5023075;28;20036;-78
2022/10/21 11:38:34;;;;;;;14.60;6.90;;;;;;;;;;5010391;28;20127;-76
2022/10/21 11:41:06;;;;;;;11.93;6.63;;;;;;;;;;5024653;28;20978;-76
2022/10/21 11:43:32;;;;;;;13.30;7.05;;;;;;;;;;5024928;28;20032;-77
2022/10/21 11:46:10;;;;;;;14.52;6.10;;;;;;;;;;5033433;28;20865;-77
2022/10/21 11:48:38;;;;;;;17.23;6.45;;;;;;;;;;5017103;28;20810;-76
2022/10/21 11:51:12;;;;;;;12.35;5.82;;;;;;;;;;5015446;28;20043;-75
2022/10/21 11:53:53;;;;;;;13.25;6.07;;;;;;;;;;5019541;28;20037;-75
2022/10/21 11:56:37;;;;;;;15.45;5.43;;;;;;;;;;5019028;28;20033;-77
2022/10/21 11:59:19;;;;;;;16.27;5.90;;;;;;;;;;5019347;28;20832;-76
2022/10/21 12:02:01;;;;;;;10.15;5.07;;;;;;;;;;5014365;28;20080;-75
2022/10/21 12:04:32;;;;;;;15.00;5.28;;;;;;;;;;5023910;28;20048;-78
2022/10/21 12:07:02;;;;;;;11.23;5.38;;;;;;;;;;5038048;28;20102;-79
2022/10/21 12:09:28;;;;;;;11.18;5.32;;;;;;;;;;5025910;28;20033;-75
2022/10/21 12:11:56;;;;;;;11.57;5.25;;;;;;;;;;5019174;28;20465;-77
2022/10/21 12:14:31;;;;;;;9.98;4.40;;;;;;;;;;5018642;28;20036;-77
2022/10/21 12:16:57;;;;;;;14.15;4.78;;;;;;;;;;5019992;28;20040;-75
2022/10/21 12:19:24;;;;;;;12.40;4.28;;;;;;;;;;5017753;28;20036;-78
2022/10/21 12:21:49;;;;;;;10.95;4.60;;;;;;;;;;5011515;28;20036;-76
2022/10/21 12:24:17;;;;;;;12.73;4.53;;;;;;;;;;5021910;28;20045;-77
2022/10/21 12:26:48;;;;;;;10.90;4.55;;;;;;;;;;5021702;28;20041;-78
2022/10/21 12:29:20;;;;;;;10.05;4.15;;;;;;;;;;5017924;28;20036;-75
2022/10/21 12:31:49;;;;;;;14.40;6.10;;;;;;;;;;5017422;28;20149;-76
2022/10/21 12:34:17;;;;;;;14.43;4.33;;;;;;;;;;5014573;28;20229;-74
2022/10/21 12:36:44;;;;;;;13.25;4.65;;;;;;;;;;5017425;28;20116;-76
2022/10/21 12:39:14;;;;;;;11.02;4.70;;;;;;;;;;5015626;28;20124;-74
2022/10/21 12:41:41;;;;;;;15.90;4.95;;;;;;;;;;5017590;28;20051;-76
2022/10/21 12:44:13;;;;;;;9.55;4.35;;;;;;;;;;5015744;28;20052;-77
2022/10/21 12:46:39;;;;;;;12.10;4.03;;;;;;;;;;5021190;28;21101;-77
2022/10/21 12:49:20;;;;;;;16.83;4.78;;;;;;;;;;5018033;28;20062;-77
2022/10/21 12:51:57;;;;;;;9.98;3.80;;;;;;;;;;5013607;28;20067;-78
2022/10/21 12:54:24;;;;;;;12.27;4.10;;;;;;;;;;5016170;28;20461;-76
2022/10/21 12:56:56;;;;;;;9.60;3.58;;;;;;;;;;5021101;28;20033;-74
2022/10/21 12:59:24;;;;;;;11.77;3.78;;;;;;;;;;5030546;28;20675;-75
2022/10/21 13:02:05;;;;;;;10.70;3.53;;;;;;;;;;5017058;28;20029;-76
2022/10/21 13:04:30;;;;;;;12.85;4.53;;;;;;;;;;5016644;28;20700;-77
2022/10/21 13:07:00;;;;;;;12.40;4.70;;;;;;;;;;5016450;28;20179;-77
2022/10/21 13:09:44;;;;;;;12.77;4.43;;;;;;;;;;5019691;28;20309;-77
2022/10/21 13:12:09;;;;;;;12.40;4.30;;;;;;;;;;5016786;28;20064;-76
2022/10/21 13:14:38;;;;;;;10.85;4.30;;;;;;;;;;5015186;28;20339;-76
2022/10/21 13:17:19;;;;;;;10.48;4.20;;;;;;;;;;5014657;28;20079;-77
2022/10/21 13:19:45;;;;;;;10.82;3.78;;;;;;;;;;5017500;28;20043;-76
2022/10/21 13:22:11;;;;;;;19.17;5.15;;;;;;;;;;5017598;28;20032;-76
2022/10/21 13:24:37;;;;;;;14.00;5.13;;;;;;;;;;5016044;28;20170;-77
2022/10/21 13:27:22;;;;;;;18.90;5.07;;;;;;;;;;5015166;28;20750;-77
2022/10/21 13:29:51;;;;;;;14.07;3.90;;;;;;;;;;5015546;28;20358;-76
2022/10/21 13:32:20;;;;;;;15.82;4.93;;;;;;;;;;4997908;28;20048;-74
2022/10/21 13:34:52;;;;;;;13.95;4.70;;;;;;;;;;5018766;28;20039;-77
2022/10/21 13:37:25;;;;;;;15.40;3.95;;;;;;;;;;5018537;28;20090;-75
2022/10/21 13:39:51;;;;;;;15.23;4.10;;;;;;;;;;5017657;28;20043;-75
2022/10/21 13:42:17;;;;;;;17.45;3.92;;;;;;;;;;5018542;28;20141;-75
2022/10/21 13:44:49;;;;;;;16.63;4.25;;;;;;;;;;5020256;28;20040;-75
2022/10/21 13:47:17;;;;;;;12.18;3.30;;;;;;;;;;5002178;28;20158;-75
2022/10/21 13:49:48;;;;;;;14.15;4.28;;;;;;;;;;5018879;28;23063;-77
2022/10/21 13:52:14;;;;;;;13.07;3.65;;;;;;;;;;5018828;28;20267;-75
2022/10/21 13:54:39;;;;;;;14.43;3.92;;;;;;;;;;5022960;28;20036;-77
2022/10/21 13:57:05;;;;;;;15.40;4.03;;;;;;;;;;5013792;28;20296;-76
2022/10/21 13:59:33;;;;;;;9.98;3.45;;;;;;;;;;5025381;28;20037;-78
2022/10/21 14:01:59;;;;;;;13.20;2.83;;;;;;;;;;5002001;28;20037;-76
2022/10/21 14:04:25;;;;;;;8.52;2.70;;;;;;;;;;5022691;28;20405;-76
2022/10/21 14:06:52;;;;;;;14.07;2.80;;;;;;;;;;5017402;28;20068;-76
2022/10/21 14:09:26;;;;;;;14.82;2.83;;;;;;;;;;5017870;28;20974;-76
2022/10/21 14:11:55;;;;;;;12.20;3.25;;;;;;;;;;5019078;28;20577;-77
2022/10/21 14:14:22;;;;;;;13.23;2.78;;;;;;;;;;5020944;28;20086;-77
2022/10/21 14:16:50;;;;;;;7.88;2.50;;;;;;;;;;5017876;28;20039;-78
2022/10/21 14:19:25;;;;;;;9.27;3.17;;;;;;;;;;5017157;28;20046;-79
2022/10/21 14:21:52;;;;;;;11.50;2.83;;;;;;;;;;5015316;28;20040;-78
2022/10/21 14:24:47;;;;;;;11.68;3.53;;;;;;;;;;5014252;28;20067;-78
2022/10/21 14:27:16;;;;;;;11.57;3.05;;;;;;;;;;5013931;28;20037;-78
2022/10/21 14:29:43;;;;;;;13.00;3.10;;;;;;;;;;5014085;28;20068;-77
2022/10/21 14:32:16;;;;;;;11.70;3.08;;;;;;;;;;5014019;28;20553;-78